sensor_id;sensor_type;location;lat;lon;timestamp;P1;durP1;ratioP1;P2;durP2;ratioP2
25079;SDS011;13071;48.868;9.996;2022-08-25T00:01:47;10.30;;;4.82;;
25079;SDS011;13071;48.868;9.996;2022-08-25T00:04:16;6.05;;;4.45;;
25079;SDS011;13071;48.868;9.996;2022-08-25T00:06:44;9.70;;;5.03;;
25079;SDS011;13071;48.868;9.996;2022-08-25T00:09:13;8.02;;;4.68;;
25079;SDS011;13071;48.868;9.996;2022-08-25T00:11:42;9.98;;;5.65;;
25079;SDS011;13071;48.868;9.996;2022-08-25T00:14:11;6.78;;;4.65;;
25079;SDS011;13071;48.868;9.996;2022-08-25T00:16:39;7.70;;;5.10;;
25079;SDS011;13071;48.868;9.996;2022-08-25T00:19:09;7.47;;;5.13;;
25079;SDS011;13071;48.868;9.996;2022-08-25T00:21:39;8.43;;;4.90;;
25079;SDS011;13071;48.868;9.996;2022-08-25T00:24:06;8.40;;;5.32;;
25079;SDS011;13071;48.868;9.996;2022-08-25T00:26:36;8.52;;;5.00;;
25079;SDS011;13071;48.868;9.996;2022-08-25T00:29:04;7.72;;;5.10;;
25079;SDS011;13071;48.868;9.996;2022-08-25T00:31:30;12.35;;;5.63;;
25079;SDS011;13071;48.868;9.996;2022-08-25T00:33:58;10.65;;;5.28;;
25079;SDS011;13071;48.868;9.996;2022-08-25T00:36:25;9.18;;;5.53;;
25079;SDS011;13071;48.868;9.996;2022-08-25T00:38:52;8.35;;;5.32;;
25079;SDS011;13071;48.868;9.996;2022-08-25T00:41:21;7.60;;;5.53;;
25079;SDS011;13071;48.868;9.996;2022-08-25T00:43:52;8.68;;;5.05;;
25079;SDS011;13071;48.868;9.996;2022-08-25T00:46:22;8.68;;;5.82;;
25079;SDS011;13071;48.868;9.996;2022-08-25T00:48:52;9.75;;;6.07;;
25079;SDS011;13071;48.868;9.996;2022-08-25T00:51:25;11.30;;;5.60;;
25079;SDS011;13071;48.868;9.996;2022-08-25T00:53:55;9.80;;;6.07;;
25079;SDS011;13071;48.868;9.996;2022-08-25T00:56:23;12.02;;;5.45;;
25079;SDS011;13071;48.868;9.996;2022-08-25T00:58:53;11.18;;;6.53;;
25079;SDS011;13071;48.868;9.996;2022-08-25T01:01:20;10.98;;;6.10;;
25079;SDS011;13071;48.868;9.996;2022-08-25T01:03:47;9.43;;;5.93;;
25079;SDS011;13071;48.868;9.996;2022-08-25T01:06:13;9.85;;;5.80;;
25079;SDS011;13071;48.868;9.996;2022-08-25T01:08:40;9.98;;;6.00;;
25079;SDS011;13071;48.868;9.996;2022-08-25T01:11:08;11.85;;;6.15;;
25079;SDS011;13071;48.868;9.996;2022-08-25T01:13:37;13.13;;;5.70;;
25079;SDS011;13071;48.868;9.996;2022-08-25T01:16:07;10.20;;;5.97;;
25079;SDS011;13071;48.868;9.996;2022-08-25T01:18:45;11.25;;;6.05;;
25079;SDS011;13071;48.868;9.996;2022-08-25T01:21:15;12.88;;;6.68;;
25079;SDS011;13071;48.868;9.996;2022-08-25T01:23:43;10.57;;;6.18;;
25079;SDS011;13071;48.868;9.996;2022-08-25T01:26:11;11.90;;;6.75;;
25079;SDS011;13071;48.868;9.996;2022-08-25T01:28:41;14.90;;;6.20;;
25079;SDS011;13071;48.868;9.996;2022-08-25T01:31:22;14.38;;;6.60;;
25079;SDS011;13071;48.868;9.996;2022-08-25T01:33:49;14.23;;;7.18;;
25079;SDS011;13071;48.868;9.996;2022-08-25T01:36:17;10.80;;;6.28;;
25079;SDS011;13071;48.868;9.996;2022-08-25T01:38:44;13.77;;;6.25;;
25079;SDS011;13071;48.868;9.996;2022-08-25T01:41:11;11.77;;;6.05;;
25079;SDS011;13071;48.868;9.996;2022-08-25T01:43:37;11.45;;;6.47;;
25079;SDS011;13071;48.868;9.996;2022-08-25T01:46:04;12.32;;;6.22;;
25079;SDS011;13071;48.868;9.996;2022-08-25T01:48:31;10.73;;;6.55;;
25079;SDS011;13071;48.868;9.996;2022-08-25T01:50:57;10.77;;;6.63;;
25079;SDS011;13071;48.868;9.996;2022-08-25T01:53:27;12.63;;;6.30;;
25079;SDS011;13071;48.868;9.996;2022-08-25T01:55:55;9.73;;;5.93;;
25079;SDS011;13071;48.868;9.996;2022-08-25T01:58:27;7.47;;;5.35;;
25079;SDS011;13071;48.868;9.996;2022-08-25T02:00:56;10.13;;;6.13;;
25079;SDS011;13071;48.868;9.996;2022-08-25T02:03:26;12.48;;;6.38;;
25079;SDS011;13071;48.868;9.996;2022-08-25T02:05:53;9.32;;;5.72;;
25079;SDS011;13071;48.868;9.996;2022-08-25T02:08:21;8.05;;;5.25;;
25079;SDS011;13071;48.868;9.996;2022-08-25T02:10:50;10.55;;;5.40;;
25079;SDS011;13071;48.868;9.996;2022-08-25T02:13:17;9.35;;;6.15;;
25079;SDS011;13071;48.868;9.996;2022-08-25T02:15:45;8.15;;;5.50;;
25079;SDS011;13071;48.868;9.996;2022-08-25T02:18:14;10.20;;;6.18;;
25079;SDS011;13071;48.868;9.996;2022-08-25T02:20:41;9.90;;;6.43;;
25079;SDS011;13071;48.868;9.996;2022-08-25T02:23:08;11.25;;;6.45;;
25079;SDS011;13071;48.868;9.996;2022-08-25T02:25:35;11.60;;;6.72;;
25079;SDS011;13071;48.868;9.996;2022-08-25T02:28:04;12.95;;;7.00;;
25079;SDS011;13071;48.868;9.996;2022-08-25T02:30:32;11.40;;;7.43;;
25079;SDS011;13071;48.868;9.996;2022-08-25T02:32:59;12.02;;;6.28;;
25079;SDS011;13071;48.868;9.996;2022-08-25T02:35:26;14.93;;;7.90;;
25079;SDS011;13071;48.868;9.996;2022-08-25T02:37:53;10.90;;;6.70;;
25079;SDS011;13071;48.868;9.996;2022-08-25T02:40:20;12.02;;;7.03;;
25079;SDS011;13071;48.868;9.996;2022-08-25T02:42:47;10.32;;;6.57;;
25079;SDS011;13071;48.868;9.996;2022-08-25T02:45:15;11.10;;;6.90;;
25079;SDS011;13071;48.868;9.996;2022-08-25T02:47:43;12.40;;;7.30;;
25079;SDS011;13071;48.868;9.996;2022-08-25T02:50:10;12.00;;;7.07;;
25079;SDS011;13071;48.868;9.996;2022-08-25T02:52:38;11.20;;;6.82;;
25079;SDS011;13071;48.868;9.996;2022-08-25T02:55:05;11.85;;;7.25;;
25079;SDS011;13071;48.868;9.996;2022-08-25T02:57:34;13.32;;;7.03;;
25079;SDS011;13071;48.868;9.996;2022-08-25T03:00:01;12.77;;;7.32;;
25079;SDS011;13071;48.868;9.996;2022-08-25T03:02:31;12.15;;;6.88;;
25079;SDS011;13071;48.868;9.996;2022-08-25T03:04:58;11.68;;;6.90;;
25079;SDS011;13071;48.868;9.996;2022-08-25T03:07:24;12.85;;;7.07;;
25079;SDS011;13071;48.868;9.996;2022-08-25T03:09:51;12.60;;;8.00;;
25079;SDS011;13071;48.868;9.996;2022-08-25T03:12:18;14.30;;;7.45;;
25079;SDS011;13071;48.868;9.996;2022-08-25T03:14:45;13.23;;;8.00;;
25079;SDS011;13071;48.868;9.996;2022-08-25T03:17:11;11.30;;;6.72;;
25079;SDS011;13071;48.868;9.996;2022-08-25T03:19:39;12.10;;;7.18;;
25079;SDS011;13071;48.868;9.996;2022-08-25T03:22:06;14.70;;;8.00;;
25079;SDS011;13071;48.868;9.996;2022-08-25T03:24:32;11.98;;;7.38;;
25079;SDS011;13071;48.868;9.996;2022-08-25T03:26:59;14.13;;;6.97;;
25079;SDS011;13071;48.868;9.996;2022-08-25T03:29:25;12.35;;;7.38;;
25079;SDS011;13071;48.868;9.996;2022-08-25T03:31:54;12.57;;;6.78;;
25079;SDS011;13071;48.868;9.996;2022-08-25T03:34:22;11.20;;;6.60;;
25079;SDS011;13071;48.868;9.996;2022-08-25T03:36:51;16.40;;;8.50;;
25079;SDS011;13071;48.868;9.996;2022-08-25T03:39:19;14.75;;;7.60;;
25079;SDS011;13071;48.868;9.996;2022-08-25T03:41:48;12.23;;;7.22;;
25079;SDS011;13071;48.868;9.996;2022-08-25T03:44:16;15.23;;;7.45;;
25079;SDS011;13071;48.868;9.996;2022-08-25T03:46:43;10.60;;;6.50;;
25079;SDS011;13071;48.868;9.996;2022-08-25T03:49:13;10.88;;;6.78;;
25079;SDS011;13071;48.868;9.996;2022-08-25T03:51:42;14.27;;;7.40;;
25079;SDS011;13071;48.868;9.996;2022-08-25T03:54:12;10.98;;;6.72;;
25079;SDS011;13071;48.868;9.996;2022-08-25T03:56:41;16.90;;;7.20;;
25079;SDS011;13071;48.868;9.996;2022-08-25T03:59:07;10.52;;;6.78;;
25079;SDS011;13071;48.868;9.996;2022-08-25T04:01:34;12.50;;;7.10;;
25079;SDS011;13071;48.868;9.996;2022-08-25T04:04:02;13.77;;;7.57;;
25079;SDS011;13071;48.868;9.996;2022-08-25T04:06:29;15.45;;;8.15;;
25079;SDS011;13071;48.868;9.996;2022-08-25T04:08:56;14.32;;;7.35;;
25079;SDS011;13071;48.868;9.996;2022-08-25T04:11:25;16.25;;;7.90;;
25079;SDS011;13071;48.868;9.996;2022-08-25T04:13:52;12.35;;;7.28;;
25079;SDS011;13071;48.868;9.996;2022-08-25T04:16:23;15.02;;;7.65;;
25079;SDS011;13071;48.868;9.996;2022-08-25T04:18:52;14.20;;;7.82;;
25079;SDS011;13071;48.868;9.996;2022-08-25T04:21:20;14.07;;;7.43;;
25079;SDS011;13071;48.868;9.996;2022-08-25T04:23:48;16.95;;;8.40;;
25079;SDS011;13071;48.868;9.996;2022-08-25T04:26:16;14.07;;;7.55;;
25079;SDS011;13071;48.868;9.996;2022-08-25T04:28:45;10.90;;;7.32;;
25079;SDS011;13071;48.868;9.996;2022-08-25T04:31:13;11.00;;;6.95;;
25079;SDS011;13071;48.868;9.996;2022-08-25T04:33:42;12.32;;;6.97;;
25079;SDS011;13071;48.868;9.996;2022-08-25T04:36:10;15.82;;;8.55;;
25079;SDS011;13071;48.868;9.996;2022-08-25T04:38:37;15.00;;;8.68;;
25079;SDS011;13071;48.868;9.996;2022-08-25T04:41:05;18.27;;;8.20;;
25079;SDS011;13071;48.868;9.996;2022-08-25T04:43:33;19.35;;;9.38;;
25079;SDS011;13071;48.868;9.996;2022-08-25T04:46:05;18.38;;;10.13;;
25079;SDS011;13071;48.868;9.996;2022-08-25T04:48:32;17.90;;;9.45;;
25079;SDS011;13071;48.868;9.996;2022-08-25T04:51:02;18.70;;;8.80;;
25079;SDS011;13071;48.868;9.996;2022-08-25T04:53:31;16.13;;;9.23;;
25079;SDS011;13071;48.868;9.996;2022-08-25T04:55:58;18.88;;;9.23;;
25079;SDS011;13071;48.868;9.996;2022-08-25T04:58:24;20.33;;;10.10;;
25079;SDS011;13071;48.868;9.996;2022-08-25T05:00:51;18.25;;;9.32;;
25079;SDS011;13071;48.868;9.996;2022-08-25T05:03:19;18.38;;;9.52;;
25079;SDS011;13071;48.868;9.996;2022-08-25T05:05:46;17.90;;;9.65;;
25079;SDS011;13071;48.868;9.996;2022-08-25T05:08:13;19.25;;;9.60;;
25079;SDS011;13071;48.868;9.996;2022-08-25T05:10:39;18.33;;;9.73;;
25079;SDS011;13071;48.868;9.996;2022-08-25T05:13:07;19.85;;;10.38;;
25079;SDS011;13071;48.868;9.996;2022-08-25T05:15:33;20.80;;;10.38;;
25079;SDS011;13071;48.868;9.996;2022-08-25T05:18:15;16.95;;;9.35;;
25079;SDS011;13071;48.868;9.996;2022-08-25T05:20:44;16.55;;;9.23;;
25079;SDS011;13071;48.868;9.996;2022-08-25T05:23:10;19.98;;;9.52;;
25079;SDS011;13071;48.868;9.996;2022-08-25T05:25:37;13.63;;;8.38;;
25079;SDS011;13071;48.868;9.996;2022-08-25T05:28:04;14.32;;;7.78;;
25079;SDS011;13071;48.868;9.996;2022-08-25T05:30:31;18.48;;;8.60;;
25079;SDS011;13071;48.868;9.996;2022-08-25T05:32:57;15.23;;;8.57;;
25079;SDS011;13071;48.868;9.996;2022-08-25T05:35:24;9.85;;;6.90;;
25079;SDS011;13071;48.868;9.996;2022-08-25T05:37:52;11.18;;;6.85;;
25079;SDS011;13071;48.868;9.996;2022-08-25T05:40:21;17.45;;;9.05;;
25079;SDS011;13071;48.868;9.996;2022-08-25T05:42:47;17.25;;;9.07;;
25079;SDS011;13071;48.868;9.996;2022-08-25T05:45:14;17.88;;;9.27;;
25079;SDS011;13071;48.868;9.996;2022-08-25T05:47:41;14.15;;;8.10;;
25079;SDS011;13071;48.868;9.996;2022-08-25T05:50:08;15.10;;;8.25;;
25079;SDS011;13071;48.868;9.996;2022-08-25T05:52:35;15.55;;;7.53;;
25079;SDS011;13071;48.868;9.996;2022-08-25T05:55:04;13.93;;;7.97;;
25079;SDS011;13071;48.868;9.996;2022-08-25T05:57:31;16.02;;;9.20;;
25079;SDS011;13071;48.868;9.996;2022-08-25T05:59:59;14.63;;;8.10;;
25079;SDS011;13071;48.868;9.996;2022-08-25T06:02:25;19.00;;;9.00;;
25079;SDS011;13071;48.868;9.996;2022-08-25T06:05:08;13.27;;;8.10;;
25079;SDS011;13071;48.868;9.996;2022-08-25T06:07:37;15.65;;;8.15;;
25079;SDS011;13071;48.868;9.996;2022-08-25T06:10:06;16.48;;;8.13;;
25079;SDS011;13071;48.868;9.996;2022-08-25T06:12:35;15.73;;;8.70;;
25079;SDS011;13071;48.868;9.996;2022-08-25T06:15:03;15.57;;;8.88;;
25079;SDS011;13071;48.868;9.996;2022-08-25T06:17:30;15.82;;;8.32;;
25079;SDS011;13071;48.868;9.996;2022-08-25T06:19:59;15.88;;;7.85;;
25079;SDS011;13071;48.868;9.996;2022-08-25T06:22:26;15.65;;;8.75;;
25079;SDS011;13071;48.868;9.996;2022-08-25T06:24:52;17.25;;;8.63;;
25079;SDS011;13071;48.868;9.996;2022-08-25T06:27:21;16.27;;;8.48;;
25079;SDS011;13071;48.868;9.996;2022-08-25T06:29:47;16.20;;;8.23;;
25079;SDS011;13071;48.868;9.996;2022-08-25T06:32:14;17.38;;;8.35;;
25079;SDS011;13071;48.868;9.996;2022-08-25T06:34:40;13.27;;;7.57;;
25079;SDS011;13071;48.868;9.996;2022-08-25T06:37:07;13.52;;;7.78;;
25079;SDS011;13071;48.868;9.996;2022-08-25T06:39:34;15.38;;;7.85;;
25079;SDS011;13071;48.868;9.996;2022-08-25T06:42:00;11.18;;;6.80;;
25079;SDS011;13071;48.868;9.996;2022-08-25T06:44:28;11.48;;;7.18;;
25079;SDS011;13071;48.868;9.996;2022-08-25T06:46:55;12.02;;;8.00;;
25079;SDS011;13071;48.868;9.996;2022-08-25T06:49:22;12.18;;;6.95;;
25079;SDS011;13071;48.868;9.996;2022-08-25T06:51:51;11.82;;;7.10;;
25079;SDS011;13071;48.868;9.996;2022-08-25T06:54:18;12.10;;;7.40;;
25079;SDS011;13071;48.868;9.996;2022-08-25T06:56:45;12.98;;;7.68;;
25079;SDS011;13071;48.868;9.996;2022-08-25T06:59:11;11.50;;;7.13;;
25079;SDS011;13071;48.868;9.996;2022-08-25T07:01:40;9.88;;;6.78;;
25079;SDS011;13071;48.868;9.996;2022-08-25T07:04:07;10.00;;;6.68;;
25079;SDS011;13071;48.868;9.996;2022-08-25T07:06:34;13.80;;;6.63;;
25079;SDS011;13071;48.868;9.996;2022-08-25T07:09:01;10.75;;;6.82;;
25079;SDS011;13071;48.868;9.996;2022-08-25T07:11:29;8.80;;;5.93;;
25079;SDS011;13071;48.868;9.996;2022-08-25T07:13:58;10.27;;;6.20;;
25079;SDS011;13071;48.868;9.996;2022-08-25T07:16:26;13.57;;;6.78;;
25079;SDS011;13071;48.868;9.996;2022-08-25T07:18:55;10.45;;;6.50;;
25079;SDS011;13071;48.868;9.996;2022-08-25T07:21:22;11.73;;;6.65;;
25079;SDS011;13071;48.868;9.996;2022-08-25T07:23:49;12.13;;;7.57;;
25079;SDS011;13071;48.868;9.996;2022-08-25T07:26:16;12.60;;;5.95;;
25079;SDS011;13071;48.868;9.996;2022-08-25T07:28:44;11.27;;;6.80;;
25079;SDS011;13071;48.868;9.996;2022-08-25T07:31:11;10.30;;;6.30;;
25079;SDS011;13071;48.868;9.996;2022-08-25T07:33:38;9.80;;;5.65;;
25079;SDS011;13071;48.868;9.996;2022-08-25T07:36:26;10.63;;;6.10;;
25079;SDS011;13071;48.868;9.996;2022-08-25T07:38:52;7.68;;;5.55;;
25079;SDS011;13071;48.868;9.996;2022-08-25T07:41:19;10.70;;;6.30;;
25079;SDS011;13071;48.868;9.996;2022-08-25T07:43:46;8.85;;;5.55;;
25079;SDS011;13071;48.868;9.996;2022-08-25T07:46:12;8.55;;;5.85;;
25079;SDS011;13071;48.868;9.996;2022-08-25T07:48:39;9.95;;;6.20;;
25079;SDS011;13071;48.868;9.996;2022-08-25T07:51:06;7.97;;;5.30;;
25079;SDS011;13071;48.868;9.996;2022-08-25T07:53:35;12.63;;;6.25;;
25079;SDS011;13071;48.868;9.996;2022-08-25T07:56:02;9.48;;;5.70;;
25079;SDS011;13071;48.868;9.996;2022-08-25T07:58:34;10.20;;;6.25;;
25079;SDS011;13071;48.868;9.996;2022-08-25T08:01:00;7.70;;;5.38;;
25079;SDS011;13071;48.868;9.996;2022-08-25T08:03:27;10.65;;;6.53;;
25079;SDS011;13071;48.868;9.996;2022-08-25T08:05:54;9.52;;;5.35;;
25079;SDS011;13071;48.868;9.996;2022-08-25T08:08:21;8.80;;;5.68;;
25079;SDS011;13071;48.868;9.996;2022-08-25T08:10:49;8.48;;;5.47;;
25079;SDS011;13071;48.868;9.996;2022-08-25T08:13:16;12.13;;;5.97;;
25079;SDS011;13071;48.868;9.996;2022-08-25T08:15:43;8.20;;;5.70;;
25079;SDS011;13071;48.868;9.996;2022-08-25T08:18:11;9.60;;;6.18;;
25079;SDS011;13071;48.868;9.996;2022-08-25T08:20:37;8.93;;;6.13;;
25079;SDS011;13071;48.868;9.996;2022-08-25T08:23:04;5.78;;;4.97;;
25079;SDS011;13071;48.868;9.996;2022-08-25T08:25:31;7.75;;;5.45;;
25079;SDS011;13071;48.868;9.996;2022-08-25T08:27:58;8.43;;;5.85;;
25079;SDS011;13071;48.868;9.996;2022-08-25T08:30:25;7.65;;;5.45;;
25079;SDS011;13071;48.868;9.996;2022-08-25T08:32:52;9.50;;;5.72;;
25079;SDS011;13071;48.868;9.996;2022-08-25T08:35:19;7.13;;;5.32;;
25079;SDS011;13071;48.868;9.996;2022-08-25T08:37:45;8.23;;;5.00;;
25079;SDS011;13071;48.868;9.996;2022-08-25T08:40:13;6.38;;;5.28;;
25079;SDS011;13071;48.868;9.996;2022-08-25T08:42:47;11.95;;;5.38;;
25079;SDS011;13071;48.868;9.996;2022-08-25T08:45:25;7.88;;;4.93;;
25079;SDS011;13071;48.868;9.996;2022-08-25T08:48:00;7.13;;;5.35;;
25079;SDS011;13071;48.868;9.996;2022-08-25T08:50:37;6.30;;;4.72;;
25079;SDS011;13071;48.868;9.996;2022-08-25T08:53:09;8.63;;;4.93;;
25079;SDS011;13071;48.868;9.996;2022-08-25T08:55:40;6.93;;;4.80;;
25079;SDS011;13071;48.868;9.996;2022-08-25T08:58:09;5.25;;;4.60;;
25079;SDS011;13071;48.868;9.996;2022-08-25T09:00:44;6.47;;;4.68;;
25079;SDS011;13071;48.868;9.996;2022-08-25T09:03:15;6.63;;;4.57;;
25079;SDS011;13071;48.868;9.996;2022-08-25T09:05:52;9.77;;;5.45;;
25079;SDS011;13071;48.868;9.996;2022-08-25T09:08:21;7.93;;;5.13;;
25079;SDS011;13071;48.868;9.996;2022-08-25T09:10:54;6.40;;;4.50;;
25079;SDS011;13071;48.868;9.996;2022-08-25T09:13:29;7.38;;;4.93;;
25079;SDS011;13071;48.868;9.996;2022-08-25T09:16:09;6.72;;;4.95;;
25079;SDS011;13071;48.868;9.996;2022-08-25T09:19:02;7.18;;;5.18;;
25079;SDS011;13071;48.868;9.996;2022-08-25T09:21:41;6.55;;;4.90;;
25079;SDS011;13071;48.868;9.996;2022-08-25T09:24:18;7.70;;;4.93;;
25079;SDS011;13071;48.868;9.996;2022-08-25T09:26:59;8.10;;;5.63;;
25079;SDS011;13071;48.868;9.996;2022-08-25T09:29:40;8.93;;;4.97;;
25079;SDS011;13071;48.868;9.996;2022-08-25T09:32:15;8.45;;;4.43;;
25079;SDS011;13071;48.868;9.996;2022-08-25T09:34:43;9.88;;;5.47;;
25079;SDS011;13071;48.868;9.996;2022-08-25T09:37:12;7.85;;;5.20;;
25079;SDS011;13071;48.868;9.996;2022-08-25T09:39:39;7.75;;;5.55;;
25079;SDS011;13071;48.868;9.996;2022-08-25T09:42:06;7.80;;;5.22;;
25079;SDS011;13071;48.868;9.996;2022-08-25T09:44:33;7.63;;;5.30;;
25079;SDS011;13071;48.868;9.996;2022-08-25T09:47:05;7.82;;;5.45;;
25079;SDS011;13071;48.868;9.996;2022-08-25T09:49:41;10.60;;;4.75;;
25079;SDS011;13071;48.868;9.996;2022-08-25T09:55:23;8.25;;;5.68;;
25079;SDS011;13071;48.868;9.996;2022-08-25T09:57:53;9.57;;;5.93;;
25079;SDS011;13071;48.868;9.996;2022-08-25T10:00:23;7.55;;;5.72;;
25079;SDS011;13071;48.868;9.996;2022-08-25T10:03:05;6.78;;;5.22;;
25079;SDS011;13071;48.868;9.996;2022-08-25T10:05:38;8.63;;;5.22;;
25079;SDS011;13071;48.868;9.996;2022-08-25T10:08:24;8.38;;;5.60;;
25079;SDS011;13071;48.868;9.996;2022-08-25T10:10:56;11.05;;;5.75;;
25079;SDS011;13071;48.868;9.996;2022-08-25T10:13:32;5.75;;;4.75;;
25079;SDS011;13071;48.868;9.996;2022-08-25T10:16:05;7.80;;;4.78;;
25079;SDS011;13071;48.868;9.996;2022-08-25T10:18:35;8.80;;;4.85;;
25079;SDS011;13071;48.868;9.996;2022-08-25T10:21:04;7.35;;;5.03;;
25079;SDS011;13071;48.868;9.996;2022-08-25T10:23:34;7.88;;;5.00;;
25079;SDS011;13071;48.868;9.996;2022-08-25T10:26:15;6.57;;;4.68;;
25079;SDS011;13071;48.868;9.996;2022-08-25T10:28:58;6.32;;;4.93;;
25079;SDS011;13071;48.868;9.996;2022-08-25T10:31:32;7.90;;;4.95;;
25079;SDS011;13071;48.868;9.996;2022-08-25T10:34:07;6.82;;;4.90;;
25079;SDS011;13071;48.868;9.996;2022-08-25T10:36:54;7.57;;;5.35;;
25079;SDS011;13071;48.868;9.996;2022-08-25T10:39:33;5.68;;;4.70;;
25079;SDS011;13071;48.868;9.996;2022-08-25T10:42:07;6.20;;;4.57;;
25079;SDS011;13071;48.868;9.996;2022-08-25T10:44:45;7.13;;;5.20;;
25079;SDS011;13071;48.868;9.996;2022-08-25T10:47:46;7.28;;;4.72;;
25079;SDS011;13071;48.868;9.996;2022-08-25T10:50:21;8.05;;;5.22;;
25079;SDS011;13071;48.868;9.996;2022-08-25T10:53:02;7.68;;;5.00;;
25079;SDS011;13071;48.868;9.996;2022-08-25T10:55:40;9.07;;;5.53;;
25079;SDS011;13071;48.868;9.996;2022-08-25T10:58:13;6.78;;;5.35;;
25079;SDS011;13071;48.868;9.996;2022-08-25T11:00:53;5.88;;;4.88;;
25079;SDS011;13071;48.868;9.996;2022-08-25T11:03:37;6.97;;;4.63;;
25079;SDS011;13071;48.868;9.996;2022-08-25T11:06:13;5.20;;;4.50;;
25079;SDS011;13071;48.868;9.996;2022-08-25T11:08:48;10.40;;;4.80;;
25079;SDS011;13071;48.868;9.996;2022-08-25T11:11:20;6.30;;;4.93;;
25079;SDS011;13071;48.868;9.996;2022-08-25T11:13:54;8.32;;;5.45;;
25079;SDS011;13071;48.868;9.996;2022-08-25T11:16:28;6.95;;;4.57;;
25079;SDS011;13071;48.868;9.996;2022-08-25T11:19:02;7.18;;;4.80;;
25079;SDS011;13071;48.868;9.996;2022-08-25T11:21:36;5.45;;;4.15;;
25079;SDS011;13071;48.868;9.996;2022-08-25T11:24:14;6.70;;;4.88;;
25079;SDS011;13071;48.868;9.996;2022-08-25T11:27:00;6.40;;;4.60;;
25079;SDS011;13071;48.868;9.996;2022-08-25T11:29:31;5.70;;;4.20;;
25079;SDS011;13071;48.868;9.996;2022-08-25T11:32:01;5.85;;;4.45;;
25079;SDS011;13071;48.868;9.996;2022-08-25T11:34:30;5.45;;;4.22;;
25079;SDS011;13071;48.868;9.996;2022-08-25T11:36:59;8.70;;;4.40;;
25079;SDS011;13071;48.868;9.996;2022-08-25T11:39:56;4.78;;;4.28;;
25079;SDS011;13071;48.868;9.996;2022-08-25T11:42:34;5.80;;;4.35;;
25079;SDS011;13071;48.868;9.996;2022-08-25T11:45:14;4.35;;;3.90;;
25079;SDS011;13071;48.868;9.996;2022-08-25T11:47:58;7.50;;;4.20;;
25079;SDS011;13071;48.868;9.996;2022-08-25T11:50:53;7.45;;;4.13;;
25079;SDS011;13071;48.868;9.996;2022-08-25T11:53:23;4.85;;;3.75;;
25079;SDS011;13071;48.868;9.996;2022-08-25T11:55:53;6.90;;;4.30;;
25079;SDS011;13071;48.868;9.996;2022-08-25T12:01:08;11.90;;;4.75;;
25079;SDS011;13071;48.868;9.996;2022-08-25T12:03:49;10.32;;;4.80;;
25079;SDS011;13071;48.868;9.996;2022-08-25T12:06:36;7.15;;;4.72;;
25079;SDS011;13071;48.868;9.996;2022-08-25T12:15:54;5.47;;;4.43;;
25079;SDS011;13071;48.868;9.996;2022-08-25T12:18:37;20.58;;;5.03;;
25079;SDS011;13071;48.868;9.996;2022-08-25T12:21:09;7.07;;;4.43;;
25079;SDS011;13071;48.868;9.996;2022-08-25T12:24:06;5.88;;;3.72;;
25079;SDS011;13071;48.868;9.996;2022-08-25T12:26:43;9.23;;;4.50;;
25079;SDS011;13071;48.868;9.996;2022-08-25T12:29:15;7.90;;;5.00;;
25079;SDS011;13071;48.868;9.996;2022-08-25T12:31:59;5.60;;;4.28;;
25079;SDS011;13071;48.868;9.996;2022-08-25T12:34:48;4.93;;;4.43;;
25079;SDS011;13071;48.868;9.996;2022-08-25T12:37:25;6.70;;;4.40;;
25079;SDS011;13071;48.868;9.996;2022-08-25T12:39:56;4.78;;;4.22;;
25079;SDS011;13071;48.868;9.996;2022-08-25T12:42:27;5.00;;;4.15;;
25079;SDS011;13071;48.868;9.996;2022-08-25T12:45:10;5.63;;;4.47;;
25079;SDS011;13071;48.868;9.996;2022-08-25T12:47:54;5.88;;;4.00;;
25079;SDS011;13071;48.868;9.996;2022-08-25T12:50:43;6.32;;;4.32;;
25079;SDS011;13071;48.868;9.996;2022-08-25T12:53:14;6.38;;;4.30;;
25079;SDS011;13071;48.868;9.996;2022-08-25T12:55:50;4.38;;;3.97;;
25079;SDS011;13071;48.868;9.996;2022-08-25T12:58:19;7.40;;;4.25;;
25079;SDS011;13071;48.868;9.996;2022-08-25T13:00:53;4.35;;;3.95;;
25079;SDS011;13071;48.868;9.996;2022-08-25T13:06:36;5.07;;;4.22;;
25079;SDS011;13071;48.868;9.996;2022-08-25T13:12:15;6.15;;;4.93;;
25079;SDS011;13071;48.868;9.996;2022-08-25T13:14:51;5.53;;;3.85;;
25079;SDS011;13071;48.868;9.996;2022-08-25T13:17:23;5.43;;;4.57;;
25079;SDS011;13071;48.868;9.996;2022-08-25T13:22:44;5.88;;;4.32;;
25079;SDS011;13071;48.868;9.996;2022-08-25T13:25:16;8.55;;;4.47;;
25079;SDS011;13071;48.868;9.996;2022-08-25T13:27:49;8.48;;;4.65;;
25079;SDS011;13071;48.868;9.996;2022-08-25T13:30:18;5.55;;;4.32;;
25079;SDS011;13071;48.868;9.996;2022-08-25T13:32:49;4.47;;;4.05;;
25079;SDS011;13071;48.868;9.996;2022-08-25T13:35:18;4.63;;;3.90;;
25079;SDS011;13071;48.868;9.996;2022-08-25T13:37:48;5.63;;;3.97;;
25079;SDS011;13071;48.868;9.996;2022-08-25T13:40:15;4.75;;;4.05;;
25079;SDS011;13071;48.868;9.996;2022-08-25T13:42:49;5.72;;;3.78;;
25079;SDS011;13071;48.868;9.996;2022-08-25T13:45:17;5.25;;;3.80;;
25079;SDS011;13071;48.868;9.996;2022-08-25T13:47:46;4.70;;;3.70;;
25079;SDS011;13071;48.868;9.996;2022-08-25T13:50:19;4.68;;;4.18;;
25079;SDS011;13071;48.868;9.996;2022-08-25T13:52:55;5.78;;;4.15;;
25079;SDS011;13071;48.868;9.996;2022-08-25T13:55:24;4.35;;;3.95;;
25079;SDS011;13071;48.868;9.996;2022-08-25T13:57:55;6.80;;;4.25;;
25079;SDS011;13071;48.868;9.996;2022-08-25T14:00:25;4.88;;;4.00;;
25079;SDS011;13071;48.868;9.996;2022-08-25T14:02:56;5.43;;;4.30;;
25079;SDS011;13071;48.868;9.996;2022-08-25T14:05:32;5.10;;;4.13;;
25079;SDS011;13071;48.868;9.996;2022-08-25T14:08:03;6.85;;;4.15;;
25079;SDS011;13071;48.868;9.996;2022-08-25T14:10:33;4.80;;;4.30;;
25079;SDS011;13071;48.868;9.996;2022-08-25T14:13:10;4.95;;;4.45;;
25079;SDS011;13071;48.868;9.996;2022-08-25T14:15:39;5.40;;;4.10;;
25079;SDS011;13071;48.868;9.996;2022-08-25T14:18:08;8.10;;;4.53;;
25079;SDS011;13071;48.868;9.996;2022-08-25T14:20:42;8.27;;;4.25;;
25079;SDS011;13071;48.868;9.996;2022-08-25T14:23:18;4.75;;;4.25;;
25079;SDS011;13071;48.868;9.996;2022-08-25T14:25:48;5.65;;;4.30;;
25079;SDS011;13071;48.868;9.996;2022-08-25T14:28:16;8.13;;;4.53;;
25079;SDS011;13071;48.868;9.996;2022-08-25T14:30:46;7.28;;;4.55;;
25079;SDS011;13071;48.868;9.996;2022-08-25T14:33:14;6.90;;;4.95;;
25079;SDS011;13071;48.868;9.996;2022-08-25T14:35:44;5.38;;;4.88;;
25079;SDS011;13071;48.868;9.996;2022-08-25T14:38:14;5.80;;;4.38;;
25079;SDS011;13071;48.868;9.996;2022-08-25T14:40:42;7.57;;;4.78;;
25079;SDS011;13071;48.868;9.996;2022-08-25T14:43:09;5.35;;;4.03;;
25079;SDS011;13071;48.868;9.996;2022-08-25T14:45:36;6.35;;;4.55;;
25079;SDS011;13071;48.868;9.996;2022-08-25T14:48:06;5.45;;;4.70;;
25079;SDS011;13071;48.868;9.996;2022-08-25T14:50:34;5.75;;;4.32;;
25079;SDS011;13071;48.868;9.996;2022-08-25T14:53:01;5.18;;;4.68;;
25079;SDS011;13071;48.868;9.996;2022-08-25T14:55:30;5.75;;;4.50;;
25079;SDS011;13071;48.868;9.996;2022-08-25T14:57:56;7.13;;;4.75;;
25079;SDS011;13071;48.868;9.996;2022-08-25T15:00:23;5.63;;;4.40;;
25079;SDS011;13071;48.868;9.996;2022-08-25T15:02:50;6.32;;;4.45;;
25079;SDS011;13071;48.868;9.996;2022-08-25T15:05:19;5.82;;;4.78;;
25079;SDS011;13071;48.868;9.996;2022-08-25T15:07:48;5.15;;;4.15;;
25079;SDS011;13071;48.868;9.996;2022-08-25T15:10:34;5.15;;;4.32;;
25079;SDS011;13071;48.868;9.996;2022-08-25T15:13:01;8.32;;;4.50;;
25079;SDS011;13071;48.868;9.996;2022-08-25T15:15:27;5.80;;;4.50;;
25079;SDS011;13071;48.868;9.996;2022-08-25T15:17:54;5.43;;;4.30;;
25079;SDS011;13071;48.868;9.996;2022-08-25T15:20:21;6.78;;;4.55;;
25079;SDS011;13071;48.868;9.996;2022-08-25T15:22:48;5.88;;;4.00;;